sensor_id;sensor_type;location;lat;lon;timestamp;P1;durP1;ratioP1;P2;durP2;ratioP2
30677;SDS011;17437;47.188;8.896;2022-08-16T00:01:17;2.15;;;1.40;;
30677;SDS011;17437;47.188;8.896;2022-08-16T00:03:51;2.02;;;1.25;;
30677;SDS011;17437;47.188;8.896;2022-08-16T00:06:23;2.15;;;1.32;;
30677;SDS011;17437;47.188;8.896;2022-08-16T00:08:54;2.67;;;2.15;;
30677;SDS011;17437;47.188;8.896;2022-08-16T00:11:26;1.80;;;1.60;;
30677;SDS011;17437;47.188;8.896;2022-08-16T00:13:58;2.12;;;1.65;;
30677;SDS011;17437;47.188;8.896;2022-08-16T00:16:31;3.08;;;1.65;;
30677;SDS011;17437;47.188;8.896;2022-08-16T00:19:04;4.40;;;1.77;;
30677;SDS011;17437;47.188;8.896;2022-08-16T00:21:36;2.45;;;1.75;;
30677;SDS011;17437;47.188;8.896;2022-08-16T00:24:08;2.10;;;1.60;;
30677;SDS011;17437;47.188;8.896;2022-08-16T00:26:40;2.15;;;1.95;;
30677;SDS011;17437;47.188;8.896;2022-08-16T00:29:14;3.52;;;1.80;;
30677;SDS011;17437;47.188;8.896;2022-08-16T00:31:47;2.35;;;1.52;;
30677;SDS011;17437;47.188;8.896;2022-08-16T00:34:22;5.47;;;1.87;;
30677;SDS011;17437;47.188;8.896;2022-08-16T00:36:55;1.55;;;1.45;;
30677;SDS011;17437;47.188;8.896;2022-08-16T00:39:28;2.42;;;1.90;;
30677;SDS011;17437;47.188;8.896;2022-08-16T00:41:59;2.05;;;1.22;;
30677;SDS011;17437;47.188;8.896;2022-08-16T00:44:31;1.75;;;1.37;;
30677;SDS011;17437;47.188;8.896;2022-08-16T00:47:05;2.12;;;1.50;;
30677;SDS011;17437;47.188;8.896;2022-08-16T00:49:38;2.75;;;2.50;;
30677;SDS011;17437;47.188;8.896;2022-08-16T00:52:11;1.90;;;1.75;;
30677;SDS011;17437;47.188;8.896;2022-08-16T00:54:44;3.47;;;1.55;;
30677;SDS011;17437;47.188;8.896;2022-08-16T00:57:16;2.60;;;1.72;;
30677;SDS011;17437;47.188;8.896;2022-08-16T00:59:49;4.40;;;1.62;;
30677;SDS011;17437;47.188;8.896;2022-08-16T01:02:22;2.92;;;1.77;;
30677;SDS011;17437;47.188;8.896;2022-08-16T01:04:55;1.80;;;1.52;;
30677;SDS011;17437;47.188;8.896;2022-08-16T01:07:28;4.17;;;1.50;;
30677;SDS011;17437;47.188;8.896;2022-08-16T01:10:02;2.05;;;1.80;;
30677;SDS011;17437;47.188;8.896;2022-08-16T01:12:36;4.08;;;2.00;;
30677;SDS011;17437;47.188;8.896;2022-08-16T01:15:10;3.95;;;1.77;;
30677;SDS011;17437;47.188;8.896;2022-08-16T01:17:42;4.92;;;2.02;;
30677;SDS011;17437;47.188;8.896;2022-08-16T01:20:18;2.65;;;1.92;;
30677;SDS011;17437;47.188;8.896;2022-08-16T01:22:54;3.67;;;1.57;;
30677;SDS011;17437;47.188;8.896;2022-08-16T01:25:30;2.72;;;2.25;;
30677;SDS011;17437;47.188;8.896;2022-08-16T01:28:05;2.72;;;1.92;;
30677;SDS011;17437;47.188;8.896;2022-08-16T01:30:41;1.85;;;1.67;;
30677;SDS011;17437;47.188;8.896;2022-08-16T01:33:17;1.70;;;1.60;;
30677;SDS011;17437;47.188;8.896;2022-08-16T01:35:53;2.10;;;1.40;;
30677;SDS011;17437;47.188;8.896;2022-08-16T01:38:26;3.80;;;2.15;;
30677;SDS011;17437;47.188;8.896;2022-08-16T01:41:02;2.67;;;1.85;;
30677;SDS011;17437;47.188;8.896;2022-08-16T01:43:37;2.55;;;2.17;;
30677;SDS011;17437;47.188;8.896;2022-08-16T01:46:25;3.30;;;2.55;;
30677;SDS011;17437;47.188;8.896;2022-08-16T01:48:52;4.15;;;3.02;;
30677;SDS011;17437;47.188;8.896;2022-08-16T01:51:27;5.58;;;3.20;;
30677;SDS011;17437;47.188;8.896;2022-08-16T01:54:00;2.58;;;2.37;;
30677;SDS011;17437;47.188;8.896;2022-08-16T01:56:32;2.98;;;2.67;;
30677;SDS011;17437;47.188;8.896;2022-08-16T01:59:06;3.30;;;3.00;;
30677;SDS011;17437;47.188;8.896;2022-08-16T02:01:41;3.40;;;3.10;;
30677;SDS011;17437;47.188;8.896;2022-08-16T02:04:14;4.37;;;3.58;;
30677;SDS011;17437;47.188;8.896;2022-08-16T02:06:48;2.52;;;2.25;;
30677;SDS011;17437;47.188;8.896;2022-08-16T02:09:22;4.28;;;2.80;;
30677;SDS011;17437;47.188;8.896;2022-08-16T02:11:57;4.00;;;3.02;;
30677;SDS011;17437;47.188;8.896;2022-08-16T02:14:31;3.42;;;3.12;;
30677;SDS011;17437;47.188;8.896;2022-08-16T02:17:04;4.78;;;2.90;;
30677;SDS011;17437;47.188;8.896;2022-08-16T02:19:38;5.60;;;2.62;;
30677;SDS011;17437;47.188;8.896;2022-08-16T02:22:13;3.02;;;2.40;;
30677;SDS011;17437;47.188;8.896;2022-08-16T02:24:49;4.10;;;2.33;;
30677;SDS011;17437;47.188;8.896;2022-08-16T02:27:22;4.78;;;2.77;;
30677;SDS011;17437;47.188;8.896;2022-08-16T02:29:54;3.27;;;2.80;;
30677;SDS011;17437;47.188;8.896;2022-08-16T02:32:26;2.83;;;2.60;;
30677;SDS011;17437;47.188;8.896;2022-08-16T02:35:00;5.28;;;3.60;;
30677;SDS011;17437;47.188;8.896;2022-08-16T02:37:32;5.28;;;3.00;;
30677;SDS011;17437;47.188;8.896;2022-08-16T02:40:06;5.28;;;3.10;;
30677;SDS011;17437;47.188;8.896;2022-08-16T02:42:39;7.97;;;4.83;;
30677;SDS011;17437;47.188;8.896;2022-08-16T02:45:12;3.92;;;2.58;;
30677;SDS011;17437;47.188;8.896;2022-08-16T02:47:46;4.37;;;3.42;;
30677;SDS011;17437;47.188;8.896;2022-08-16T02:50:19;4.85;;;2.90;;
30677;SDS011;17437;47.188;8.896;2022-08-16T02:52:52;3.37;;;2.95;;
30677;SDS011;17437;47.188;8.896;2022-08-16T02:55:24;3.50;;;3.05;;
30677;SDS011;17437;47.188;8.896;2022-08-16T02:57:57;8.35;;;3.40;;
30677;SDS011;17437;47.188;8.896;2022-08-16T03:00:29;2.52;;;2.30;;
30677;SDS011;17437;47.188;8.896;2022-08-16T03:03:02;3.00;;;2.17;;
30677;SDS011;17437;47.188;8.896;2022-08-16T03:05:36;4.92;;;2.50;;
30677;SDS011;17437;47.188;8.896;2022-08-16T03:08:09;2.80;;;2.55;;
30677;SDS011;17437;47.188;8.896;2022-08-16T03:10:42;4.28;;;3.52;;
30677;SDS011;17437;47.188;8.896;2022-08-16T03:13:16;6.92;;;4.37;;
30677;SDS011;17437;47.188;8.896;2022-08-16T03:15:47;3.90;;;2.90;;
30677;SDS011;17437;47.188;8.896;2022-08-16T03:18:19;3.25;;;2.42;;
30677;SDS011;17437;47.188;8.896;2022-08-16T03:20:52;2.62;;;2.27;;
30677;SDS011;17437;47.188;8.896;2022-08-16T03:23:24;3.75;;;3.25;;
30677;SDS011;17437;47.188;8.896;2022-08-16T03:25:57;6.55;;;2.98;;
30677;SDS011;17437;47.188;8.896;2022-08-16T03:28:30;3.83;;;2.40;;
30677;SDS011;17437;47.188;8.896;2022-08-16T03:31:02;2.92;;;2.65;;
30677;SDS011;17437;47.188;8.896;2022-08-16T03:33:35;4.30;;;2.40;;
30677;SDS011;17437;47.188;8.896;2022-08-16T03:36:07;4.50;;;3.00;;
30677;SDS011;17437;47.188;8.896;2022-08-16T03:38:40;2.60;;;2.15;;
30677;SDS011;17437;47.188;8.896;2022-08-16T03:41:12;4.60;;;3.40;;
30677;SDS011;17437;47.188;8.896;2022-08-16T03:43:46;3.10;;;2.80;;
30677;SDS011;17437;47.188;8.896;2022-08-16T03:46:19;3.10;;;2.77;;
30677;SDS011;17437;47.188;8.896;2022-08-16T03:48:52;2.90;;;2.67;;
30677;SDS011;17437;47.188;8.896;2022-08-16T03:51:24;5.97;;;2.52;;
30677;SDS011;17437;47.188;8.896;2022-08-16T03:53:56;3.17;;;2.87;;
30677;SDS011;17437;47.188;8.896;2022-08-16T03:56:29;3.33;;;2.85;;
30677;SDS011;17437;47.188;8.896;2022-08-16T03:59:01;8.20;;;3.70;;
30677;SDS011;17437;47.188;8.896;2022-08-16T04:01:32;3.80;;;3.50;;
30677;SDS011;17437;47.188;8.896;2022-08-16T04:04:04;4.25;;;3.80;;
30677;SDS011;17437;47.188;8.896;2022-08-16T04:06:36;9.13;;;3.95;;
30677;SDS011;17437;47.188;8.896;2022-08-16T04:09:08;4.08;;;3.67;;
30677;SDS011;17437;47.188;8.896;2022-08-16T04:11:40;5.37;;;3.62;;
30677;SDS011;17437;47.188;8.896;2022-08-16T04:14:12;3.90;;;3.50;;
30677;SDS011;17437;47.188;8.896;2022-08-16T04:16:45;7.97;;;3.60;;
30677;SDS011;17437;47.188;8.896;2022-08-16T04:19:18;4.50;;;3.60;;
30677;SDS011;17437;47.188;8.896;2022-08-16T04:21:53;5.15;;;3.83;;
30677;SDS011;17437;47.188;8.896;2022-08-16T04:24:25;5.42;;;3.62;;
30677;SDS011;17437;47.188;8.896;2022-08-16T04:26:57;4.42;;;3.50;;
30677;SDS011;17437;47.188;8.896;2022-08-16T04:29:29;4.90;;;4.00;;
30677;SDS011;17437;47.188;8.896;2022-08-16T04:32:03;4.37;;;3.70;;
30677;SDS011;17437;47.188;8.896;2022-08-16T04:34:36;8.30;;;4.22;;
30677;SDS011;17437;47.188;8.896;2022-08-16T04:37:08;4.65;;;4.15;;
30677;SDS011;17437;47.188;8.896;2022-08-16T04:39:40;6.55;;;4.30;;
30677;SDS011;17437;47.188;8.896;2022-08-16T04:42:13;5.55;;;4.17;;
30677;SDS011;17437;47.188;8.896;2022-08-16T04:44:46;5.78;;;3.72;;
30677;SDS011;17437;47.188;8.896;2022-08-16T04:47:19;5.40;;;3.90;;
30677;SDS011;17437;47.188;8.896;2022-08-16T04:49:52;6.17;;;4.33;;
30677;SDS011;17437;47.188;8.896;2022-08-16T04:52:25;4.70;;;3.87;;
30677;SDS011;17437;47.188;8.896;2022-08-16T04:54:59;5.80;;;4.28;;
30677;SDS011;17437;47.188;8.896;2022-08-16T04:57:31;4.83;;;4.17;;
30677;SDS011;17437;47.188;8.896;2022-08-16T05:00:05;6.78;;;4.70;;
30677;SDS011;17437;47.188;8.896;2022-08-16T05:02:42;5.87;;;4.70;;
30677;SDS011;17437;47.188;8.896;2022-08-16T05:05:14;6.00;;;4.67;;
30677;SDS011;17437;47.188;8.896;2022-08-16T05:07:46;4.70;;;4.20;;
30677;SDS011;17437;47.188;8.896;2022-08-16T05:10:19;4.90;;;4.42;;
30677;SDS011;17437;47.188;8.896;2022-08-16T05:12:51;5.37;;;3.90;;
30677;SDS011;17437;47.188;8.896;2022-08-16T05:15:24;4.80;;;3.58;;
30677;SDS011;17437;47.188;8.896;2022-08-16T05:17:56;5.20;;;4.05;;
30677;SDS011;17437;47.188;8.896;2022-08-16T05:20:29;6.47;;;3.75;;
30677;SDS011;17437;47.188;8.896;2022-08-16T05:23:02;7.22;;;4.15;;
30677;SDS011;17437;47.188;8.896;2022-08-16T05:25:34;5.60;;;3.80;;
30677;SDS011;17437;47.188;8.896;2022-08-16T05:28:07;5.70;;;3.62;;
30677;SDS011;17437;47.188;8.896;2022-08-16T05:30:39;6.47;;;4.25;;
30677;SDS011;17437;47.188;8.896;2022-08-16T05:33:11;6.15;;;3.77;;
30677;SDS011;17437;47.188;8.896;2022-08-16T05:35:44;4.45;;;3.00;;
30677;SDS011;17437;47.188;8.896;2022-08-16T05:38:18;3.70;;;3.35;;
30677;SDS011;17437;47.188;8.896;2022-08-16T05:40:54;3.85;;;3.05;;
30677;SDS011;17437;47.188;8.896;2022-08-16T05:43:30;4.65;;;2.60;;
30677;SDS011;17437;47.188;8.896;2022-08-16T05:46:04;4.60;;;2.62;;
30677;SDS011;17437;47.188;8.896;2022-08-16T05:48:38;3.20;;;2.22;;
30677;SDS011;17437;47.188;8.896;2022-08-16T05:51:09;3.47;;;2.42;;
30677;SDS011;17437;47.188;8.896;2022-08-16T05:53:42;2.92;;;2.37;;
30677;SDS011;17437;47.188;8.896;2022-08-16T05:56:14;5.40;;;2.33;;
30677;SDS011;17437;47.188;8.896;2022-08-16T05:58:47;4.72;;;2.22;;
30677;SDS011;17437;47.188;8.896;2022-08-16T06:01:18;2.80;;;2.33;;
30677;SDS011;17437;47.188;8.896;2022-08-16T06:03:50;2.60;;;1.87;;
30677;SDS011;17437;47.188;8.896;2022-08-16T06:06:23;2.65;;;2.20;;
30677;SDS011;17437;47.188;8.896;2022-08-16T06:08:56;2.40;;;2.10;;
30677;SDS011;17437;47.188;8.896;2022-08-16T06:11:28;2.45;;;1.95;;
30677;SDS011;17437;47.188;8.896;2022-08-16T06:13:59;4.65;;;2.42;;
30677;SDS011;17437;47.188;8.896;2022-08-16T06:16:33;5.10;;;2.52;;
30677;SDS011;17437;47.188;8.896;2022-08-16T06:19:05;5.62;;;2.55;;
30677;SDS011;17437;47.188;8.896;2022-08-16T06:21:36;10.18;;;2.20;;
30677;SDS011;17437;47.188;8.896;2022-08-16T06:24:08;7.78;;;4.92;;
30677;SDS011;17437;47.188;8.896;2022-08-16T06:26:41;4.42;;;2.98;;
30677;SDS011;17437;47.188;8.896;2022-08-16T06:29:14;3.45;;;2.40;;
30677;SDS011;17437;47.188;8.896;2022-08-16T06:31:46;2.37;;;1.67;;
30677;SDS011;17437;47.188;8.896;2022-08-16T06:34:18;3.90;;;1.62;;
30677;SDS011;17437;47.188;8.896;2022-08-16T06:36:54;5.17;;;1.80;;
30677;SDS011;17437;47.188;8.896;2022-08-16T06:39:27;2.33;;;1.55;;
30677;SDS011;17437;47.188;8.896;2022-08-16T06:42:00;6.05;;;2.20;;
30677;SDS011;17437;47.188;8.896;2022-08-16T06:44:34;4.42;;;2.35;;
30677;SDS011;17437;47.188;8.896;2022-08-16T06:47:07;4.37;;;2.47;;
30677;SDS011;17437;47.188;8.896;2022-08-16T06:49:42;3.83;;;2.30;;
30677;SDS011;17437;47.188;8.896;2022-08-16T06:52:15;3.30;;;2.20;;
30677;SDS011;17437;47.188;8.896;2022-08-16T06:54:48;3.55;;;1.92;;
30677;SDS011;17437;47.188;8.896;2022-08-16T06:57:20;3.60;;;1.98;;
30677;SDS011;17437;47.188;8.896;2022-08-16T06:59:51;4.30;;;2.10;;
30677;SDS011;17437;47.188;8.896;2022-08-16T07:02:24;2.22;;;1.75;;
30677;SDS011;17437;47.188;8.896;2022-08-16T07:04:58;3.60;;;2.12;;
30677;SDS011;17437;47.188;8.896;2022-08-16T07:07:29;1.87;;;1.77;;
30677;SDS011;17437;47.188;8.896;2022-08-16T07:10:04;3.60;;;2.25;;
30677;SDS011;17437;47.188;8.896;2022-08-16T07:12:37;4.75;;;2.00;;
30677;SDS011;17437;47.188;8.896;2022-08-16T07:15:10;3.08;;;1.90;;
30677;SDS011;17437;47.188;8.896;2022-08-16T07:17:43;2.98;;;1.87;;
30677;SDS011;17437;47.188;8.896;2022-08-16T07:20:17;3.90;;;2.33;;
30677;SDS011;17437;47.188;8.896;2022-08-16T07:22:52;4.45;;;2.30;;
30677;SDS011;17437;47.188;8.896;2022-08-16T07:25:25;5.08;;;2.58;;
30677;SDS011;17437;47.188;8.896;2022-08-16T07:27:57;2.50;;;2.30;;
30677;SDS011;17437;47.188;8.896;2022-08-16T07:30:29;3.87;;;2.33;;
30677;SDS011;17437;47.188;8.896;2022-08-16T07:33:03;2.80;;;2.20;;
30677;SDS011;17437;47.188;8.896;2022-08-16T07:35:35;2.40;;;2.15;;
30677;SDS011;17437;47.188;8.896;2022-08-16T07:38:08;2.52;;;2.25;;
30677;SDS011;17437;47.188;8.896;2022-08-16T07:40:42;4.35;;;2.22;;
30677;SDS011;17437;47.188;8.896;2022-08-16T07:43:15;3.47;;;2.65;;
30677;SDS011;17437;47.188;8.896;2022-08-16T07:45:48;4.50;;;2.33;;
30677;SDS011;17437;47.188;8.896;2022-08-16T07:48:21;5.53;;;2.12;;
30677;SDS011;17437;47.188;8.896;2022-08-16T07:50:53;8.20;;;3.12;;
30677;SDS011;17437;47.188;8.896;2022-08-16T07:53:27;6.58;;;3.00;;
30677;SDS011;17437;47.188;8.896;2022-08-16T07:56:00;5.22;;;3.02;;
30677;SDS011;17437;47.188;8.896;2022-08-16T07:58:33;5.20;;;2.83;;
30677;SDS011;17437;47.188;8.896;2022-08-16T08:01:05;3.00;;;2.40;;
30677;SDS011;17437;47.188;8.896;2022-08-16T08:03:38;2.80;;;2.40;;
30677;SDS011;17437;47.188;8.896;2022-08-16T08:06:13;4.58;;;2.70;;
30677;SDS011;17437;47.188;8.896;2022-08-16T08:08:46;6.17;;;3.10;;
30677;SDS011;17437;47.188;8.896;2022-08-16T08:11:19;4.05;;;3.50;;
30677;SDS011;17437;47.188;8.896;2022-08-16T08:13:57;6.00;;;3.55;;
30677;SDS011;17437;47.188;8.896;2022-08-16T08:16:31;3.65;;;2.80;;
30677;SDS011;17437;47.188;8.896;2022-08-16T08:19:03;5.03;;;4.20;;
30677;SDS011;17437;47.188;8.896;2022-08-16T08:21:38;6.42;;;2.40;;
30677;SDS011;17437;47.188;8.896;2022-08-16T08:24:12;3.33;;;2.85;;
30677;SDS011;17437;47.188;8.896;2022-08-16T08:26:44;3.72;;;3.05;;
30677;SDS011;17437;47.188;8.896;2022-08-16T08:29:18;3.65;;;3.12;;
30677;SDS011;17437;47.188;8.896;2022-08-16T08:31:51;6.80;;;3.80;;
30677;SDS011;17437;47.188;8.896;2022-08-16T08:34:23;6.25;;;4.22;;
30677;SDS011;17437;47.188;8.896;2022-08-16T08:36:55;4.15;;;3.17;;
30677;SDS011;17437;47.188;8.896;2022-08-16T08:39:28;4.87;;;2.98;;
30677;SDS011;17437;47.188;8.896;2022-08-16T08:42:00;2.92;;;2.62;;
30677;SDS011;17437;47.188;8.896;2022-08-16T08:44:34;5.67;;;3.37;;
30677;SDS011;17437;47.188;8.896;2022-08-16T08:47:05;15.48;;;4.10;;
30677;SDS011;17437;47.188;8.896;2022-08-16T08:49:38;5.42;;;3.02;;
30677;SDS011;17437;47.188;8.896;2022-08-16T08:52:12;3.10;;;2.80;;
30677;SDS011;17437;47.188;8.896;2022-08-16T08:54:45;9.25;;;3.70;;
30677;SDS011;17437;47.188;8.896;2022-08-16T08:57:18;4.05;;;3.22;;
30677;SDS011;17437;47.188;8.896;2022-08-16T08:59:51;4.22;;;3.47;;
30677;SDS011;17437;47.188;8.896;2022-08-16T09:02:24;6.50;;;3.27;;
30677;SDS011;17437;47.188;8.896;2022-08-16T09:04:56;9.13;;;6.00;;
30677;SDS011;17437;47.188;8.896;2022-08-16T09:07:27;4.87;;;3.40;;
30677;SDS011;17437;47.188;8.896;2022-08-16T09:10:01;5.58;;;3.30;;
30677;SDS011;17437;47.188;8.896;2022-08-16T09:12:35;5.47;;;3.92;;
30677;SDS011;17437;47.188;8.896;2022-08-16T09:15:07;7.45;;;2.90;;
30677;SDS011;17437;47.188;8.896;2022-08-16T09:17:41;4.42;;;3.10;;
30677;SDS011;17437;47.188;8.896;2022-08-16T09:20:15;4.80;;;2.70;;
30677;SDS011;17437;47.188;8.896;2022-08-16T09:22:47;3.58;;;3.27;;
30677;SDS011;17437;47.188;8.896;2022-08-16T09:25:21;3.55;;;2.90;;
30677;SDS011;17437;47.188;8.896;2022-08-16T09:27:54;5.75;;;3.10;;
30677;SDS011;17437;47.188;8.896;2022-08-16T09:30:27;3.58;;;3.10;;
30677;SDS011;17437;47.188;8.896;2022-08-16T09:33:03;4.50;;;3.15;;
30677;SDS011;17437;47.188;8.896;2022-08-16T09:35:37;3.45;;;3.15;;
30677;SDS011;17437;47.188;8.896;2022-08-16T09:38:11;6.22;;;3.10;;
30677;SDS011;17437;47.188;8.896;2022-08-16T09:40:44;3.02;;;2.72;;
30677;SDS011;17437;47.188;8.896;2022-08-16T09:43:17;5.17;;;2.85;;
30677;SDS011;17437;47.188;8.896;2022-08-16T09:45:53;3.15;;;2.80;;
30677;SDS011;17437;47.188;8.896;2022-08-16T09:48:24;4.60;;;3.22;;
30677;SDS011;17437;47.188;8.896;2022-08-16T09:50:58;4.10;;;3.40;;
30677;SDS011;17437;47.188;8.896;2022-08-16T09:53:31;3.95;;;3.55;;
30677;SDS011;17437;47.188;8.896;2022-08-16T09:56:07;7.55;;;3.00;;
30677;SDS011;17437;47.188;8.896;2022-08-16T09:58:40;3.77;;;3.37;;
30677;SDS011;17437;47.188;8.896;2022-08-16T10:01:13;6.35;;;3.02;;
30677;SDS011;17437;47.188;8.896;2022-08-16T10:03:46;5.25;;;3.22;;
30677;SDS011;17437;47.188;8.896;2022-08-16T10:06:20;7.33;;;3.22;;
30677;SDS011;17437;47.188;8.896;2022-08-16T10:08:54;5.22;;;3.52;;
30677;SDS011;17437;47.188;8.896;2022-08-16T10:11:27;4.65;;;3.27;;
30677;SDS011;17437;47.188;8.896;2022-08-16T10:14:19;3.62;;;3.10;;
30677;SDS011;17437;47.188;8.896;2022-08-16T10:16:52;3.30;;;2.75;;
30677;SDS011;17437;47.188;8.896;2022-08-16T10:19:26;4.58;;;3.30;;
30677;SDS011;17437;47.188;8.896;2022-08-16T10:21:59;3.70;;;3.35;;
30677;SDS011;17437;47.188;8.896;2022-08-16T10:24:32;3.85;;;3.15;;
30677;SDS011;17437;47.188;8.896;2022-08-16T10:27:05;4.00;;;2.83;;
30677;SDS011;17437;47.188;8.896;2022-08-16T10:29:40;4.30;;;3.20;;
30677;SDS011;17437;47.188;8.896;2022-08-16T10:32:13;2.87;;;2.65;;
30677;SDS011;17437;47.188;8.896;2022-08-16T10:34:46;10.82;;;4.62;;
30677;SDS011;17437;47.188;8.896;2022-08-16T10:37:19;3.80;;;3.15;;
30677;SDS011;17437;47.188;8.896;2022-08-16T10:39:52;3.25;;;2.83;;
30677;SDS011;17437;47.188;8.896;2022-08-16T10:42:24;4.78;;;3.15;;
30677;SDS011;17437;47.188;8.896;2022-08-16T10:44:56;4.85;;;2.98;;
30677;SDS011;17437;47.188;8.896;2022-08-16T10:47:28;4.17;;;2.58;;
30677;SDS011;17437;47.188;8.896;2022-08-16T10:50:01;7.50;;;2.60;;
30677;SDS011;17437;47.188;8.896;2022-08-16T10:52:33;3.52;;;2.35;;
30677;SDS011;17437;47.188;8.896;2022-08-16T10:55:05;4.47;;;2.10;;
30677;SDS011;17437;47.188;8.896;2022-08-16T10:57:41;2.95;;;2.67;;
30677;SDS011;17437;47.188;8.896;2022-08-16T11:00:14;3.90;;;1.82;;
30677;SDS011;17437;47.188;8.896;2022-08-16T11:02:48;5.22;;;3.02;;
30677;SDS011;17437;47.188;8.896;2022-08-16T11:05:22;2.75;;;2.35;;
30677;SDS011;17437;47.188;8.896;2022-08-16T11:07:54;2.40;;;2.20;;
30677;SDS011;17437;47.188;8.896;2022-08-16T11:10:29;5.75;;;2.58;;
30677;SDS011;17437;47.188;8.896;2022-08-16T11:13:04;3.80;;;2.52;;
30677;SDS011;17437;47.188;8.896;2022-08-16T11:15:38;3.72;;;2.00;;
30677;SDS011;17437;47.188;8.896;2022-08-16T11:18:13;2.40;;;2.20;;
30677;SDS011;17437;47.188;8.896;2022-08-16T11:20:46;7.65;;;2.22;;
30677;SDS011;17437;47.188;8.896;2022-08-16T11:23:18;5.62;;;2.37;;
30677;SDS011;17437;47.188;8.896;2022-08-16T11:25:50;2.62;;;1.90;;
30677;SDS011;17437;47.188;8.896;2022-08-16T11:28:24;2.35;;;2.10;;
30677;SDS011;17437;47.188;8.896;2022-08-16T11:30:57;2.72;;;2.17;;
30677;SDS011;17437;47.188;8.896;2022-08-16T11:33:29;3.08;;;2.50;;
30677;SDS011;17437;47.188;8.896;2022-08-16T11:36:02;5.45;;;2.92;;
30677;SDS011;17437;47.188;8.896;2022-08-16T11:38:36;5.33;;;2.95;;
30677;SDS011;17437;47.188;8.896;2022-08-16T11:41:09;2.25;;;1.72;;
30677;SDS011;17437;47.188;8.896;2022-08-16T11:43:40;2.30;;;2.10;;
30677;SDS011;17437;47.188;8.896;2022-08-16T11:46:13;2.77;;;1.80;;
30677;SDS011;17437;47.188;8.896;2022-08-16T11:48:47;4.33;;;2.35;;
30677;SDS011;17437;47.188;8.896;2022-08-16T11:51:19;10.18;;;3.47;;
30677;SDS011;17437;47.188;8.896;2022-08-16T11:53:51;2.75;;;1.67;;
30677;SDS011;17437;47.188;8.896;2022-08-16T11:56:22;4.05;;;1.92;;
30677;SDS011;17437;47.188;8.896;2022-08-16T11:58:55;2.58;;;2.00;;
30677;SDS011;17437;47.188;8.896;2022-08-16T12:01:27;3.80;;;1.95;;
30677;SDS011;17437;47.188;8.896;2022-08-16T12:04:00;3.42;;;2.15;;
30677;SDS011;17437;47.188;8.896;2022-08-16T12:06:32;4.40;;;2.37;;
30677;SDS011;17437;47.188;8.896;2022-08-16T12:09:05;3.55;;;2.17;;
30677;SDS011;17437;47.188;8.896;2022-08-16T12:11:38;3.12;;;2.22;;
30677;SDS011;17437;47.188;8.896;2022-08-16T12:14:11;3.42;;;2.20;;
30677;SDS011;17437;47.188;8.896;2022-08-16T12:16:44;3.42;;;2.10;;
30677;SDS011;17437;47.188;8.896;2022-08-16T12:19:17;2.87;;;2.58;;
30677;SDS011;17437;47.188;8.896;2022-08-16T12:21:50;5.17;;;2.60;;
30677;SDS011;17437;47.188;8.896;2022-08-16T12:24:23;3.65;;;2.52;;
30677;SDS011;17437;47.188;8.896;2022-08-16T12:26:55;4.60;;;2.40;;
30677;SDS011;17437;47.188;8.896;2022-08-16T12:29:28;2.65;;;2.45;;
30677;SDS011;17437;47.188;8.896;2022-08-16T12:31:59;3.47;;;2.62;;
30677;SDS011;17437;47.188;8.896;2022-08-16T12:34:32;2.83;;;1.90;;
30677;SDS011;17437;47.188;8.896;2022-08-16T12:37:04;4.00;;;2.50;;
30677;SDS011;17437;47.188;8.896;2022-08-16T12:39:38;3.17;;;2.77;;
30677;SDS011;17437;47.188;8.896;2022-08-16T12:42:11;6.30;;;2.00;;
30677;SDS011;17437;47.188;8.896;2022-08-16T12:44:45;3.55;;;2.80;;
30677;SDS011;17437;47.188;8.896;2022-08-16T12:47:18;8.33;;;2.27;;
30677;SDS011;17437;47.188;8.896;2022-08-16T12:50:22;5.35;;;2.02;;
30677;SDS011;17437;47.188;8.896;2022-08-16T12:52:55;6.90;;;2.62;;
30677;SDS011;17437;47.188;8.896;2022-08-16T12:55:27;2.45;;;1.87;;
30677;SDS011;17437;47.188;8.896;2022-08-16T12:58:00;5.58;;;2.08;;
30677;SDS011;17437;47.188;8.896;2022-08-16T13:00:35;2.50;;;2.00;;
30677;SDS011;17437;47.188;8.896;2022-08-16T13:03:08;2.98;;;1.95;;
30677;SDS011;17437;47.188;8.896;2022-08-16T13:05:43;2.90;;;2.65;;
30677;SDS011;17437;47.188;8.896;2022-08-16T13:08:17;2.20;;;1.77;;
30677;SDS011;17437;47.188;8.896;2022-08-16T13:10:51;3.87;;;1.85;;
30677;SDS011;17437;47.188;8.896;2022-08-16T13:13:24;2.52;;;2.10;;
30677;SDS011;17437;47.188;8.896;2022-08-16T13:15:58;3.02;;;2.08;;
30677;SDS011;17437;47.188;8.896;2022-08-16T13:18:32;1.95;;;1.80;;
30677;SDS011;17437;47.188;8.896;2022-08-16T13:21:05;3.12;;;2.83;;
30677;SDS011;17437;47.188;8.896;2022-08-16T13:23:38;8.33;;;4.03;;
30677;SDS011;17437;47.188;8.896;2022-08-16T13:26:11;2.70;;;2.22;;
30677;SDS011;17437;47.188;8.896;2022-08-16T13:28:44;3.12;;;2.67;;
30677;SDS011;17437;47.188;8.896;2022-08-16T13:31:16;3.02;;;2.15;;
30677;SDS011;17437;47.188;8.896;2022-08-16T13:33:48;8.38;;;2.80;;
30677;SDS011;17437;47.188;8.896;2022-08-16T13:36:21;2.77;;;1.98;;
30677;SDS011;17437;47.188;8.896;2022-08-16T13:38:54;2.55;;;2.12;;
30677;SDS011;17437;47.188;8.896;2022-08-16T13:41:26;2.10;;;1.90;;
30677;SDS011;17437;47.188;8.896;2022-08-16T13:43:58;3.50;;;1.82;;
30677;SDS011;17437;47.188;8.896;2022-08-16T13:46:32;3.05;;;1.55;;
30677;SDS011;17437;47.188;8.896;2022-08-16T13:49:04;2.55;;;1.60;;
30677;SDS011;17437;47.188;8.896;2022-08-16T13:51:35;3.22;;;1.85;;
30677;SDS011;17437;47.188;8.896;2022-08-16T13:54:08;2.37;;;1.87;;
30677;SDS011;17437;47.188;8.896;2022-08-16T13:56:40;4.42;;;1.30;;
30677;SDS011;17437;47.188;8.896;2022-08-16T13:59:12;3.50;;;1.25;;
30677;SDS011;17437;47.188;8.896;2022-08-16T14:01:46;2.67;;;1.60;;
30677;SDS011;17437;47.188;8.896;2022-08-16T14:04:21;2.90;;;1.77;;
30677;SDS011;17437;47.188;8.896;2022-08-16T14:06:56;2.15;;;1.35;;
30677;SDS011;17437;47.188;8.896;2022-08-16T14:09:28;2.85;;;1.42;;
30677;SDS011;17437;47.188;8.896;2022-08-16T14:12:02;2.22;;;2.02;;
30677;SDS011;17437;47.188;8.896;2022-08-16T14:14:37;2.60;;;1.90;;
30677;SDS011;17437;47.188;8.896;2022-08-16T14:17:10;3.45;;;1.85;;
30677;SDS011;17437;47.188;8.896;2022-08-16T14:19:41;2.95;;;1.57;;
30677;SDS011;17437;47.188;8.896;2022-08-16T14:22:15;2.12;;;1.50;;
30677;SDS011;17437;47.188;8.896;2022-08-16T14:24:50;1.90;;;1.50;;
30677;SDS011;17437;47.188;8.896;2022-08-16T14:27:25;1.90;;;1.70;;
30677;SDS011;17437;47.188;8.896;2022-08-16T14:29:58;2.00;;;1.77;;
30677;SDS011;17437;47.188;8.896;2022-08-16T14:32:30;4.83;;;2.27;;
30677;SDS011;17437;47.188;8.896;2022-08-16T14:35:04;3.05;;;1.67;;
30677;SDS011;17437;47.188;8.896;2022-08-16T14:37:39;7.62;;;2.17;;
30677;SDS011;17437;47.188;8.896;2022-08-16T14:40:12;3.55;;;1.32;;
30677;SDS011;17437;47.188;8.896;2022-08-16T14:42:47;1.77;;;1.60;;
30677;SDS011;17437;47.188;8.896;2022-08-16T14:45:23;4.60;;;1.60;;
30677;SDS011;17437;47.188;8.896;2022-08-16T14:47:57;2.15;;;1.75;;
30677;SDS011;17437;47.188;8.896;2022-08-16T14:50:29;4.83;;;2.90;;
30677;SDS011;17437;47.188;8.896;2022-08-16T14:53:03;2.80;;;2.35;;
30677;SDS011;17437;47.188;8.896;2022-08-16T14:55:36;2.85;;;2.17;;
30677;SDS011;17437;47.188;8.896;2022-08-16T14:58:09;4.67;;;2.25;;
30677;SDS011;17437;47.188;8.896;2022-08-16T15:00:42;4.47;;;1.92;;
30677;SDS011;17437;47.188;8.896;2022-08-16T15:03:13;4.67;;;2.45;;
30677;SDS011;17437;47.188;8.896;2022-08-16T15:05:45;6.95;;;2.45;;
30677;SDS011;17437;47.188;8.896;2022-08-16T15:08:18;3.12;;;2.10;;
30677;SDS011;17437;47.188;8.896;2022-08-16T15:10:51;5.90;;;2.70;;
30677;SDS011;17437;47.188;8.896;2022-08-16T15:13:23;4.10;;;2.65;;
30677;SDS011;17437;47.188;8.896;2022-08-16T15:15:56;2.52;;;2.33;;
30677;SDS011;17437;47.188;8.896;2022-08-16T15:18:29;4.95;;;2.40;;
30677;SDS011;17437;47.188;8.896;2022-08-16T15:21:03;3.72;;;2.55;;
30677;SDS011;17437;47.188;8.896;2022-08-16T15:23:36;4.08;;;1.92;;